Time;durP1;ratioP1;P1;durP2;ratioP2;P2;SDS_P1;SDS_P2;PMS_P1;PMS_P2;Temp;Humidity;BMP_temperature;BMP_pressure;BME280_temperature;BME280_humidity;BME280_pressure;Samples;Min_cycle;Max_cycle;Signal;HPM_P1;HPM_P2
2022/08/10 00:01:24;;;;;;;;;;;;;;;20.65;61.31;95322.22;5095687;28;1036;-50
2022/08/10 00:03:50;;;;;;;;;;;;;;;20.75;61.17;95314.41;5095489;28;961;-50
2022/08/10 00:06:16;;;;;;;;;;;;;;;21.00;60.48;95310.88;5095492;28;1032;-49
2022/08/10 00:08:42;;;;;;;;;;;;;;;21.26;59.40;95324.22;5095186;28;1041;-50
2022/08/10 00:11:08;;;;;;;;;;;;;;;20.71;62.40;95318.63;5095144;28;1096;-50
2022/08/10 00:13:35;;;;;;;;;;;;;;;20.27;62.10;95314.91;5095354;28;1053;-50
2022/08/10 00:16:01;;;;;;;;;;;;;;;20.62;61.15;95298.22;5095417;28;1914;-50
2022/08/10 00:18:27;;;;;;;;;;;;;;;20.79;61.34;95312.94;5095096;28;1079;-50
2022/08/10 00:20:53;;;;;;;;;;;;;;;20.64;62.24;95313.25;5095293;28;978;-50
2022/08/10 00:23:19;;;;;;;;;;;;;;;20.36;64.20;95323.66;5094861;28;1020;-50
2022/08/10 00:25:45;;;;;;;;;;;;;;;20.31;63.67;95313.44;5095316;28;996;-50
2022/08/10 00:28:11;;;;;;;;;;;;;;;20.19;64.83;95315.19;5094987;28;949;-50
2022/08/10 00:30:37;;;;;;;;;;;;;;;20.24;62.85;95308.06;5095066;28;1980;-50
2022/08/10 00:33:03;;;;;;;;;;;;;;;20.42;63.04;95314.63;5094476;28;1099;-50
2022/08/10 00:35:30;;;;;;;;;;;;;;;20.47;62.83;95304.78;5094908;28;1995;-50
2022/08/10 00:37:56;;;;;;;;;;;;;;;20.56;62.05;95307.22;5094659;28;1203;-50
2022/08/10 00:40:22;;;;;;;;;;;;;;;20.62;62.52;95309.94;5094996;28;942;-50
2022/08/10 00:42:48;;;;;;;;;;;;;;;20.47;63.62;95304.78;5094815;28;1035;-50
2022/08/10 00:45:14;;;;;;;;;;;;;;;20.30;64.01;95306.34;5074906;28;1165;-50
2022/08/10 00:47:40;;;;;;;;;;;;;;;20.24;64.22;95313.47;5074321;28;1008;-50
2022/08/10 00:50:07;;;;;;;;;;;;;;;20.07;65.39;95315.00;5074357;28;1036;-50
2022/08/10 00:52:34;;;;;;;;;;;;;;;19.78;65.53;95325.38;5074111;28;1057;-49
2022/08/10 00:55:01;;;;;;;;;;;;;;;20.06;64.33;95316.91;5074180;28;1902;-50
2022/08/10 00:57:27;;;;;;;;;;;;;;;20.26;63.32;95321.38;5074312;28;1011;-49
2022/08/10 00:59:54;;;;;;;;;;;;;;;20.22;64.53;95323.72;5074106;28;1096;-49
2022/08/10 01:02:20;;;;;;;;;;;;;;;20.21;63.72;95321.22;5074158;28;1030;-49
2022/08/10 01:04:46;;;;;;;;;;;;;;;20.20;64.14;95319.56;5073925;28;1089;-49
2022/08/10 01:07:31;;;;;;;;;;;;;;;20.07;64.96;95313.16;5073894;28;1004;-49
2022/08/10 01:10:20;;;;;;;;;;;;;;;19.93;66.38;95310.72;5074060;28;1006;-49
2022/08/10 01:12:53;;;;;;;;;;;;;;;19.66;65.95;95317.03;5060791;28;2199;-50
2022/08/10 01:15:31;;;;;;;;;;;;;;;19.78;65.72;95311.81;5073792;28;1991;-50
2022/08/10 01:18:01;;;;;;;;;;;;;;;19.53;67.30;95322.50;5074048;28;992;-49
2022/08/10 01:20:39;;;;;;;;;;;;;;;19.49;67.53;95326.69;5074118;28;950;-49
2022/08/10 01:23:17;;;;;;;;;;;;;;;19.43;67.43;95324.84;5073685;28;1028;-49
2022/08/10 01:26:02;;;;;;;;;;;;;;;19.60;67.00;95320.59;5073700;28;1049;-50
2022/08/10 01:28:34;;;;;;;;;;;;;;;19.29;68.66;95330.28;5073767;28;1023;-49
2022/08/10 01:31:01;;;;;;;;;;;;;;;19.19;68.60;95320.91;5073767;28;1069;-50
2022/08/10 01:33:35;;;;;;;;;;;;;;;19.34;68.26;95323.38;5073560;28;973;-49
2022/08/10 01:36:01;;;;;;;;;;;;;;;19.49;67.19;95316.66;5073460;28;1993;-50
2022/08/10 01:38:30;;;;;;;;;;;;;;;19.36;67.73;95326.72;5073311;28;957;-50
2022/08/10 01:41:06;;;;;;;;;;;;;;;19.32;67.67;95323.59;5073509;28;1124;-49
2022/08/10 01:43:33;;;;;;;;;;;;;;;19.52;67.44;95323.56;5078791;28;1158;-50
2022/08/10 01:46:01;;;;;;;;;;;;;;;19.14;69.24;95334.25;5093825;28;1041;-49
2022/08/10 01:48:33;;;;;;;;;;;;;;;18.92;69.46;95329.06;5093668;28;1048;-49
2022/08/10 01:51:22;;;;;;;;;;;;;;;19.03;69.72;95327.59;5093595;28;1068;-50
2022/08/10 01:53:53;;;;;;;;;;;;;;;19.10;69.69;95323.00;5093666;28;1061;-49
2022/08/10 01:56:20;;;;;;;;;;;;;;;19.01;69.82;95333.22;5093442;28;1913;-49
2022/08/10 01:58:48;;;;;;;;;;;;;;;18.68;70.79;95325.88;5093435;28;1186;-50
2022/08/10 02:01:16;;;;;;;;;;;;;;;18.68;70.53;95320.47;5093449;28;1036;-49
2022/08/10 02:03:43;;;;;;;;;;;;;;;18.53;71.10;95317.13;5093238;28;1054;-49
2022/08/10 02:06:11;;;;;;;;;;;;;;;18.52;70.22;95319.00;5093601;28;1036;-49
2022/08/10 02:08:38;;;;;;;;;;;;;;;18.77;70.26;95326.53;5093310;28;1024;-49
2022/08/10 02:11:04;;;;;;;;;;;;;;;18.82;69.43;95324.06;5093020;28;1088;-49
2022/08/10 02:13:31;;;;;;;;;;;;;;;18.90;69.20;95329.25;5093491;28;1174;-49
2022/08/10 02:15:58;;;;;;;;;;;;;;;18.85;70.27;95334.47;5093093;28;1997;-50
2022/08/10 02:18:25;;;;;;;;;;;;;;;18.91;69.78;95320.09;5093494;28;1135;-50
2022/08/10 02:20:52;;;;;;;;;;;;;;;19.10;68.91;95317.56;5093355;28;1064;-50
2022/08/10 02:23:21;;;;;;;;;;;;;;;19.07;69.13;95326.13;5093385;28;954;-50
2022/08/10 02:25:48;;;;;;;;;;;;;;;18.99;68.80;95323.63;5093067;28;1107;-49
2022/08/10 02:28:16;;;;;;;;;;;;;;;18.92;69.92;95331.75;5093276;28;1032;-49
2022/08/10 02:30:43;;;;;;;;;;;;;;;18.61;71.13;95325.06;5093052;28;970;-50
2022/08/10 02:33:09;;;;;;;;;;;;;;;18.67;70.47;95323.41;5093374;28;985;-49
2022/08/10 02:35:36;;;;;;;;;;;;;;;18.89;69.50;95322.19;5093159;28;1917;-49
2022/08/10 02:38:05;;;;;;;;;;;;;;;18.57;70.68;95322.97;5093368;28;1063;-50
2022/08/10 02:40:34;;;;;;;;;;;;;;;18.11;72.05;95319.94;5092960;28;1099;-50
2022/08/10 02:43:04;;;;;;;;;;;;;;;18.19;71.62;95316.22;5092070;28;1157;-49
2022/08/10 02:45:36;;;;;;;;;;;;;;;18.54;69.96;95319.63;5072641;28;1024;-49
2022/08/10 02:48:06;;;;;;;;;;;;;;;18.61;70.69;95321.50;5072977;28;1053;-49
2022/08/10 02:50:33;;;;;;;;;;;;;;;18.33;71.49;95317.09;5072957;28;980;-50
2022/08/10 02:53:05;;;;;;;;;;;;;;;18.35;72.13;95317.72;5072805;28;1033;-49
2022/08/10 02:56:09;;;;;;;;;;;;;;;18.26;72.14;95317.06;5072631;28;1905;-50
2022/08/10 02:58:46;;;;;;;;;;;;;;;18.24;72.25;95329.97;4971922;28;1780;-49
2022/08/10 03:01:17;;;;;;;;;;;;;;;18.32;71.47;95326.25;4971588;28;988;-49
2022/08/10 03:03:46;;;;;;;;;;;;;;;18.44;72.15;95329.19;5030624;28;1064;-50
2022/08/10 03:06:14;;;;;;;;;;;;;;;18.17;72.10;95333.72;5072315;28;1104;-49
2022/08/10 03:08:42;;;;;;;;;;;;;;;18.15;72.71;95339.31;5072910;28;965;-50
2022/08/10 03:11:12;;;;;;;;;;;;;;;18.08;72.63;95338.47;5072393;28;1168;-50
2022/08/10 03:13:39;;;;;;;;;;;;;;;18.05;72.98;95344.28;5072644;28;1080;-50
2022/08/10 03:16:06;;;;;;;;;;;;;;;17.98;73.52;95351.53;5072353;28;1937;-49
2022/08/10 03:18:33;;;;;;;;;;;;;;;17.85;73.92;95358.59;5072649;28;1044;-50
2022/08/10 03:21:00;;;;;;;;;;;;;;;18.01;73.42;95357.38;5054912;28;1057;-49
2022/08/10 03:23:27;;;;;;;;;;;;;;;18.02;73.29;95359.06;5076212;28;1051;-49
2022/08/10 03:25:55;;;;;;;;;;;;;;;17.83;73.27;95366.03;5076039;28;965;-49
2022/08/10 03:28:23;;;;;;;;;;;;;;;17.76;73.40;95357.06;5076073;28;1049;-49
2022/08/10 03:30:49;;;;;;;;;;;;;;;17.90;73.21;95368.78;5075881;28;1087;-49
2022/08/10 03:33:16;;;;;;;;;;;;;;;17.83;73.72;95370.59;5075819;28;1049;-49
2022/08/10 03:35:42;;;;;;;;;;;;;;;17.93;73.18;95365.69;5075571;28;1995;-49
2022/08/10 03:38:08;;;;;;;;;;;;;;;17.98;73.31;95367.78;5075671;28;1053;-49
2022/08/10 03:40:35;;;;;;;;;;;;;;;17.92;73.42;95364.84;5075755;28;1065;-49
2022/08/10 03:43:02;;;;;;;;;;;;;;;17.83;73.71;95365.19;5076914;28;1213;-49
2022/08/10 03:45:30;;;;;;;;;;;;;;;17.66;74.83;95370.94;5095716;28;1100;-49
2022/08/10 03:47:57;;;;;;;;;;;;;;;17.68;74.17;95365.31;5095788;28;1071;-49
2022/08/10 03:50:24;;;;;;;;;;;;;;;17.73;74.17;95366.38;5095794;28;1096;-49
2022/08/10 03:52:51;;;;;;;;;;;;;;;17.86;74.19;95375.63;5095988;28;1052;-49
2022/08/10 03:55:17;;;;;;;;;;;;;;;17.96;73.49;95376.09;5095645;28;1910;-50
2022/08/10 03:57:43;;;;;;;;;;;;;;;18.38;71.62;95371.44;5095846;28;964;-49
2022/08/10 04:00:09;;;;;;;;;;;;;;;18.57;71.21;95367.09;5095530;28;968;-49
2022/08/10 04:02:36;;;;;;;;;;;;;;;18.36;71.82;95381.63;5095643;28;954;-49
2022/08/10 04:05:02;;;;;;;;;;;;;;;18.35;71.73;95377.28;5095738;28;1001;-49
2022/08/10 04:07:28;;;;;;;;;;;;;;;18.28;72.39;95379.94;5095389;28;1860;-49
2022/08/10 04:09:54;;;;;;;;;;;;;;;17.99;73.32;95383.81;5095654;28;988;-49
2022/08/10 04:12:20;;;;;;;;;;;;;;;18.26;72.59;95382.03;5095034;28;1334;-49
2022/08/10 04:14:46;;;;;;;;;;;;;;;18.27;73.48;95396.41;5095393;28;1025;-49
2022/08/10 04:17:12;;;;;;;;;;;;;;;18.44;72.08;95383.31;5095000;28;1976;-49
2022/08/10 04:19:44;;;;;;;;;;;;;;;18.63;72.74;95398.81;5095269;28;1018;-50
2022/08/10 04:22:17;;;;;;;;;;;;;;;18.74;71.68;95394.63;5094972;28;1190;-50
2022/08/10 04:24:45;;;;;;;;;;;;;;;18.97;71.65;95390.72;5095284;28;1076;-49
2022/08/10 04:27:12;;;;;;;;;;;;;;;19.12;71.09;95391.34;5094825;28;1036;-49
2022/08/10 04:29:38;;;;;;;;;;;;;;;19.02;71.21;95396.38;5095172;28;965;-49
2022/08/10 04:32:06;;;;;;;;;;;;;;;18.92;71.48;95388.66;5094458;28;966;-49
2022/08/10 04:34:34;;;;;;;;;;;;;;;19.39;69.70;95385.91;5094932;28;1080;-49
2022/08/10 04:37:03;;;;;;;;;;;;;;;19.65;69.25;95390.47;5094620;28;1984;-49
2022/08/10 04:39:29;;;;;;;;;;;;;;;19.62;70.86;95399.06;5095003;28;970;-48
2022/08/10 04:41:55;;;;;;;;;;;;;;;19.63;69.00;95401.53;5094633;28;986;-48
2022/08/10 04:44:21;;;;;;;;;;;;;;;19.63;70.42;95396.09;5082418;28;1201;-49
2022/08/10 04:46:47;;;;;;;;;;;;;;;19.83;69.31;95393.41;5074289;28;1092;-49
2022/08/10 04:49:13;;;;;;;;;;;;;;;19.93;69.36;95397.53;5074609;28;1036;-49
2022/08/10 04:51:39;;;;;;;;;;;;;;;20.02;68.56;95393.56;5074209;28;1025;-49
2022/08/10 04:54:05;;;;;;;;;;;;;;;20.32;66.10;95396.56;5074339;28;1013;-49
2022/08/10 04:56:32;;;;;;;;;;;;;;;20.50;66.25;95386.88;5074048;28;1990;-49
2022/08/10 04:58:58;;;;;;;;;;;;;;;20.67;66.80;95388.03;5074285;28;988;-49
2022/08/10 05:01:24;;;;;;;;;;;;;;;20.81;66.75;95388.78;5073888;28;1021;-49
2022/08/10 05:03:50;;;;;;;;;;;;;;;20.77;67.55;95390.28;5074351;28;1032;-49
2022/08/10 05:06:16;;;;;;;;;;;;;;;20.89;66.85;95385.81;5073904;28;906;-49
2022/08/10 05:08:42;;;;;;;;;;;;;;;20.95;66.83;95384.94;5074133;28;1060;-49
2022/08/10 05:11:08;;;;;;;;;;;;;;;21.06;66.23;95386.13;5073741;28;1180;-49
2022/08/10 05:13:34;;;;;;;;;;;;;;;21.22;65.30;95384.72;5073824;28;1121;-49
2022/08/10 05:16:00;;;;;;;;;;;;;;;21.56;62.88;95391.56;5073742;28;1909;-49
2022/08/10 05:18:26;;;;;;;;;;;;;;;21.78;62.84;95393.88;5073565;28;1001;-49
2022/08/10 05:21:12;;;;;;;;;;;;;;;21.85;63.62;95378.28;5074034;28;2029;-49
2022/08/10 05:24:03;;;;;;;;;;;;;;;21.96;62.57;95384.88;5074056;28;2024;-49
2022/08/10 05:26:48;;;;;;;;;;;;;;;22.10;61.70;95394.56;5073893;28;1926;-49
2022/08/10 05:29:14;;;;;;;;;;;;;;;22.21;61.82;95395.66;5073592;28;1942;-49
2022/08/10 05:31:40;;;;;;;;;;;;;;;22.37;60.47;95394.28;5073498;28;1029;-49
2022/08/10 05:34:06;;;;;;;;;;;;;;;22.49;60.72;95389.69;5073553;28;1048;-49
2022/08/10 05:36:33;;;;;;;;;;;;;;;22.72;60.55;95388.13;5073540;28;1994;-49
2022/08/10 05:38:59;;;;;;;;;;;;;;;22.98;58.98;95381.47;5073311;28;1061;-49
2022/08/10 05:41:27;;;;;;;;;;;;;;;23.25;59.42;95386.53;5073703;28;1016;-49
2022/08/10 05:43:54;;;;;;;;;;;;;;;23.36;57.72;95386.53;5080859;28;1221;-49
2022/08/10 05:46:20;;;;;;;;;;;;;;;23.61;57.65;95384.66;5093760;28;953;-49
2022/08/10 05:48:46;;;;;;;;;;;;;;;23.58;57.05;95378.59;5093558;28;992;-49
2022/08/10 05:51:12;;;;;;;;;;;;;;;23.61;58.29;95387.38;5093587;28;1255;-49
2022/08/10 05:53:38;;;;;;;;;;;;;;;23.51;58.61;95379.78;5093415;28;1875;-49
2022/08/10 05:56:06;;;;;;;;;;;;;;;23.43;58.69;95383.72;5093658;28;1981;-48
2022/08/10 05:58:32;;;;;;;;;;;;;;;23.56;57.79;95388.94;5093561;28;1061;-49
2022/08/10 06:01:01;;;;;;;;;;;;;;;23.76;58.53;95385.81;5093544;28;1879;-49
2022/08/10 06:03:30;;;;;;;;;;;;;;;23.83;57.04;95379.44;5093257;28;1993;-48
2022/08/10 06:05:57;;;;;;;;;;;;;;;23.97;57.67;95378.97;5093453;28;962;-49
2022/08/10 06:08:27;;;;;;;;;;;;;;;23.99;55.96;95381.44;5093148;28;1048;-48
2022/08/10 06:10:54;;;;;;;;;;;;;;;24.17;59.02;95378.56;5093440;28;1077;-50
2022/08/10 06:16:06;;;;;;;;;;;;;;;24.59;57.13;95385.72;5093253;28;1988;-49
2022/08/10 06:18:32;;;;;;;;;;;;;;;24.79;55.57;95379.81;5093154;28;1028;-49
2022/08/10 06:20:59;;;;;;;;;;;;;;;24.88;57.25;95388.47;5093246;28;1088;-49
2022/08/10 06:23:27;;;;;;;;;;;;;;;24.90;55.77;95386.31;5093281;28;1221;-49
2022/08/10 06:25:54;;;;;;;;;;;;;;;24.98;56.66;95387.81;5093249;28;1029;-49
2022/08/10 06:28:21;;;;;;;;;;;;;;;25.21;55.37;95387.69;5093171;28;996;-50
2022/08/10 06:30:49;;;;;;;;;;;;;;;25.35;54.18;95382.75;5093175;28;918;-49
2022/08/10 06:33:17;;;;;;;;;;;;;;;25.54;54.51;95385.25;5092879;28;1072;-50
2022/08/10 06:35:43;;;;;;;;;;;;;;;25.71;55.81;95380.56;5093117;28;1991;-50
2022/08/10 06:38:10;;;;;;;;;;;;;;;25.83;54.60;95386.75;5093074;28;1037;-50
2022/08/10 06:40:38;;;;;;;;;;;;;;;25.91;53.62;95380.03;5093352;28;968;-50
2022/08/10 06:43:07;;;;;;;;;;;;;;;26.12;53.08;95383.91;5091419;28;1153;-50
2022/08/10 06:45:47;;;;;;;;;;;;;;;26.37;53.00;95379.84;5072880;28;1017;-49
2022/08/10 06:48:25;;;;;;;;;;;;;;;26.53;51.14;95381.69;5072879;28;1088;-50
2022/08/10 06:50:55;;;;;;;;;;;;;;;26.57;52.70;95382.00;5072988;28;967;-49
2022/08/10 06:53:22;;;;;;;;;;;;;;;26.77;52.11;95379.53;5072726;28;1029;-50
2022/08/10 06:55:50;;;;;;;;;;;;;;;26.99;51.83;95374.00;5074308;28;1983;-50
2022/08/10 06:58:20;;;;;;;;;;;;;;;27.14;49.77;95375.22;5076240;28;1028;-50
2022/08/10 07:00:46;;;;;;;;;;;;;;;27.17;48.97;95374.72;5076710;28;990;-49
2022/08/10 07:03:14;;;;;;;;;;;;;;;27.27;48.73;95375.66;5076677;28;1057;-50
2022/08/10 07:05:43;;;;;;;;;;;;;;;27.45;48.41;95377.19;5076501;28;1032;-50
2022/08/10 07:08:09;;;;;;;;;;;;;;;27.64;46.89;95371.28;5076270;28;1017;-50
2022/08/10 07:10:37;;;;;;;;;;;;;;;27.67;47.28;95372.69;5076019;28;1200;-50
2022/08/10 07:13:03;;;;;;;;;;;;;;;27.75;44.63;95370.25;5076193;28;1112;-50
2022/08/10 07:15:29;;;;;;;;;;;;;;;27.83;46.26;95380.78;5075970;28;1910;-50
2022/08/10 07:17:56;;;;;;;;;;;;;;;27.96;45.24;95376.75;5076455;28;974;-49
2022/08/10 07:20:23;;;;;;;;;;;;;;;28.03;44.25;95371.84;5075925;28;1029;-49
2022/08/10 07:22:51;;;;;;;;;;;;;;;27.93;43.14;95370.97;5076249;28;961;-50
2022/08/10 07:25:19;;;;;;;;;;;;;;;27.87;44.46;95371.97;5075896;28;1052;-50
2022/08/10 07:27:46;;;;;;;;;;;;;;;28.01;46.39;95370.47;5075936;28;1970;-50
2022/08/10 07:30:13;;;;;;;;;;;;;;;28.22;45.11;95374.16;5075982;28;976;-49
2022/08/10 07:32:42;;;;;;;;;;;;;;;28.19;44.84;95377.41;5076137;28;992;-50
2022/08/10 07:35:10;;;;;;;;;;;;;;;28.20;45.26;95368.91;5075649;28;1906;-49
2022/08/10 07:37:37;;;;;;;;;;;;;;;28.19;45.07;95369.19;5076361;28;1030;-50
2022/08/10 07:40:04;;;;;;;;;;;;;;;28.20;43.50;95366.16;5075598;28;968;-50
2022/08/10 07:42:31;;;;;;;;;;;;;;;28.15;45.17;95373.56;5058253;28;1017;-49
2022/08/10 07:44:57;;;;;;;;;;;;;;;28.14;45.95;95369.16;5092968;28;1166;-49
2022/08/10 07:47:29;;;;;;;;;;;;;;;28.23;43.55;95364.81;5096015;28;1014;-49
2022/08/10 07:49:59;;;;;;;;;;;;;;;28.23;44.45;95362.88;5095870;28;963;-49
2022/08/10 07:52:26;;;;;;;;;;;;;;;28.30;43.74;95353.56;5095755;28;1153;-49
2022/08/10 07:54:53;;;;;;;;;;;;;;;28.34;43.46;95360.19;5095535;28;964;-49
2022/08/10 07:57:22;;;;;;;;;;;;;;;28.39;44.79;95352.78;5095832;28;1987;-49
2022/08/10 07:59:52;;;;;;;;;;;;;;;28.50;44.47;95352.84;5095736;28;995;-49
2022/08/10 08:02:29;;;;;;;;;;;;;;;28.59;43.58;95352.06;5096090;28;1040;-49
2022/08/10 08:04:57;;;;;;;;;;;;;;;28.66;43.45;95351.78;5095523;28;996;-50
2022/08/10 08:07:24;;;;;;;;;;;;;;;28.67;42.82;95341.66;5094752;28;1040;-49
2022/08/10 08:09:51;;;;;;;;;;;;;;;28.68;42.61;95346.03;5095606;28;960;-49
2022/08/10 08:12:18;;;;;;;;;;;;;;;28.73;42.71;95340.56;5095227;28;1079;-50
2022/08/10 08:14:44;;;;;;;;;;;;;;;28.81;42.72;95343.59;5095362;28;1028;-50
2022/08/10 08:17:12;;;;;;;;;;;;;;;28.92;42.54;95338.13;5095242;28;1989;-50
2022/08/10 08:19:38;;;;;;;;;;;;;;;28.99;42.19;95341.44;5095103;28;1084;-49
2022/08/10 08:22:06;;;;;;;;;;;;;;;28.96;42.33;95334.53;5095097;28;969;-50
2022/08/10 08:24:34;;;;;;;;;;;;;;;29.00;41.33;95340.31;5095227;28;973;-50
2022/08/10 08:27:01;;;;;;;;;;;;;;;29.02;41.10;95335.38;5095228;28;1028;-50
2022/08/10 08:29:28;;;;;;;;;;;;;;;29.02;42.99;95335.38;5095122;28;1000;-49
2022/08/10 08:31:54;;;;;;;;;;;;;;;29.20;42.86;95328.53;5095092;28;1028;-50
2022/08/10 08:34:21;;;;;;;;;;;;;;;29.38;41.77;95336.25;5095409;28;962;-50
2022/08/10 08:36:48;;;;;;;;;;;;;;;29.39;41.15;95324.13;5094925;28;1910;-49
2022/08/10 08:39:15;;;;;;;;;;;;;;;29.45;41.24;95324.13;5094772;28;1056;-50
2022/08/10 08:41:49;;;;;;;;;;;;;;;29.47;40.79;95332.94;5094613;28;1036;-49
2022/08/10 08:44:15;;;;;;;;;;;;;;;29.55;40.36;95326.88;5083369;28;1150;-49
2022/08/10 08:46:48;;;;;;;;;;;;;;;29.51;41.19;95323.03;5074409;28;996;-49
2022/08/10 08:49:17;;;;;;;;;;;;;;;29.54;40.37;95319.72;5074343;28;1025;-49
2022/08/10 08:51:49;;;;;;;;;;;;;;;29.62;41.53;95313.66;5074227;28;1021;-49
2022/08/10 08:54:15;;;;;;;;;;;;;;;29.80;40.35;95323.28;5074464;28;1042;-49
2022/08/10 08:56:45;;;;;;;;;;;;;;;29.75;40.05;95320.56;5074211;28;1999;-49
2022/08/10 08:59:29;;;;;;;;;;;;;;;29.72;39.70;95319.13;5074144;28;1965;-49
2022/08/10 09:02:14;;;;;;;;;;;;;;;29.83;41.28;95319.97;5074267;28;1044;-48
2022/08/10 09:04:58;;;;;;;;;;;;;;;29.86;41.41;95313.06;5074275;28;1029;-48
2022/08/10 09:07:42;;;;;;;;;;;;;;;29.88;41.14;95314.47;5074030;28;974;-48
2022/08/10 09:10:11;;;;;;;;;;;;;;;29.89;40.77;95312.53;5073851;28;945;-48
2022/08/10 09:12:57;;;;;;;;;;;;;;;29.95;41.71;95306.69;5074248;28;1048;-48
2022/08/10 09:15:32;;;;;;;;;;;;;;;29.97;41.66;95311.94;5073637;28;2003;-48
2022/08/10 09:18:01;;;;;;;;;;;;;;;30.08;40.65;95293.44;5073955;28;1007;-48
2022/08/10 09:20:34;;;;;;;;;;;;;;;30.09;40.57;95295.94;5072956;28;957;-48
2022/08/10 09:23:06;;;;;;;;;;;;;;;30.20;41.90;95295.88;5074094;28;1037;-48
2022/08/10 09:25:34;;;;;;;;;;;;;;;30.28;41.37;95303.56;5073825;28;976;-48
2022/08/10 09:28:08;;;;;;;;;;;;;;;30.30;40.91;95307.69;5073885;28;1130;-48
2022/08/10 09:30:40;;;;;;;;;;;;;;;30.37;40.46;95290.84;5073724;28;1000;-48
2022/08/10 09:33:28;;;;;;;;;;;;;;;30.30;40.87;95290.34;5073677;28;1020;-48
2022/08/10 09:36:13;;;;;;;;;;;;;;;30.33;40.55;95292.53;5062945;28;1910;-48
2022/08/10 09:38:39;;;;;;;;;;;;;;;30.42;40.11;95290.84;5073620;28;1029;-48
2022/08/10 09:41:31;;;;;;;;;;;;;;;30.45;41.05;95286.69;5073419;28;1078;-48
2022/08/10 09:44:24;;;;;;;;;;;;;;;30.36;39.67;95289.22;5082677;28;1170;-48
2022/08/10 09:46:53;;;;;;;;;;;;;;;30.38;41.45;95287.00;5093619;28;1036;-48
2022/08/10 09:49:19;;;;;;;;;;;;;;;30.52;40.02;95279.75;5094098;28;981;-48
2022/08/10 09:51:55;;;;;;;;;;;;;;;30.52;39.24;95276.97;5093508;28;968;-48
2022/08/10 09:54:53;;;;;;;;;;;;;;;30.71;41.29;95273.56;5093600;28;902;-48
2022/08/10 09:57:38;;;;;;;;;;;;;;;30.21;39.53;95281.00;5048648;28;1993;-48
2022/08/10 10:00:10;;;;;;;;;;;;;;;29.70;40.77;95270.94;5093520;28;1004;-47
2022/08/10 10:02:55;;;;;;;;;;;;;;;29.63;41.98;95271.22;5093649;28;1040;-48
2022/08/10 10:05:24;;;;;;;;;;;;;;;29.95;41.54;95273.63;5093572;28;1021;-48
2022/08/10 10:07:56;;;;;;;;;;;;;;;30.21;42.14;95276.28;5093297;28;1088;-48
2022/08/10 10:10:28;;;;;;;;;;;;;;;30.01;41.92;95270.84;5093332;28;1341;-49
2022/08/10 10:13:09;;;;;;;;;;;;;;;29.55;41.63;95275.34;5093260;28;1065;-48
2022/08/10 10:15:38;;;;;;;;;;;;;;;29.15;42.01;95268.78;5093311;28;1905;-48
2022/08/10 10:18:12;;;;;;;;;;;;;;;28.80;41.99;95272.34;5093240;28;984;-48
2022/08/10 10:20:38;;;;;;;;;;;;;;;28.75;42.20;95272.31;5093464;28;996;-48
2022/08/10 10:23:14;;;;;;;;;;;;;;;28.96;41.62;95271.22;5093068;28;950;-48
2022/08/10 10:25:43;;;;;;;;;;;;;;;28.94;42.81;95258.88;5093558;28;1119;-48
2022/08/10 10:28:15;;;;;;;;;;;;;;;29.27;42.53;95256.66;5093225;28;1040;-48
2022/08/10 10:30:47;;;;;;;;;;;;;;;29.77;40.62;95252.22;5095015;28;1135;-48
2022/08/10 10:33:16;;;;;;;;;;;;;;;29.95;37.93;95251.56;5097125;28;1045;-48
2022/08/10 10:35:53;;;;;;;;;;;;;;;30.10;40.44;95247.13;5097670;28;1993;-48
2022/08/10 10:38:34;;;;;;;;;;;;;;;30.31;41.45;95234.88;5097219;28;1023;-58
2022/08/10 10:41:03;;;;;;;;;;;;;;;30.32;41.08;95236.56;5097266;28;1088;-47
2022/08/10 10:43:46;;;;;;;;;;;;;;;29.93;40.24;95234.50;5092098;28;1213;-47
2022/08/10 10:46:27;;;;;;;;;;;;;;;29.72;40.93;95233.72;5076663;28;1033;-47
2022/08/10 10:48:53;;;;;;;;;;;;;;;29.92;39.20;95229.28;5076785;28;992;-47
2022/08/10 10:51:31;;;;;;;;;;;;;;;30.08;39.79;95230.03;5076813;28;989;-47
2022/08/10 10:54:07;;;;;;;;;;;;;;;30.24;38.59;95215.09;5076489;28;1009;-47
2022/08/10 10:56:51;;;;;;;;;;;;;;;30.48;37.57;95219.94;5076467;28;1995;-47
2022/08/10 10:59:27;;;;;;;;;;;;;;;30.44;38.13;95211.41;5076562;28;1030;-47
2022/08/10 11:01:59;;;;;;;;;;;;;;;30.47;38.59;95205.31;5076502;28;1569;-48
2022/08/10 11:04:34;;;;;;;;;;;;;;;30.54;37.91;95207.75;5076218;28;1037;-47
2022/08/10 11:07:03;;;;;;;;;;;;;;;30.59;37.38;95198.63;5076394;28;953;-48
2022/08/10 11:09:33;;;;;;;;;;;;;;;30.71;37.75;95199.06;5083823;28;3055;-49
2022/08/10 11:12:02;;;;;;;;;;;;;;;30.87;36.90;95197.03;5082121;28;3161;-49
2022/08/10 11:14:28;;;;;;;;;;;;;;;30.93;36.82;95198.66;5096317;28;1062;-48
2022/08/10 11:17:04;;;;;;;;;;;;;;;30.75;36.39;95195.47;5096176;28;3320;-49
2022/08/10 11:19:53;;;;;;;;;;;;;;;30.62;36.03;95192.50;5095687;28;1041;-49
2022/08/10 11:22:29;;;;;;;;;;;;;;;30.33;36.50;95184.97;5096255;28;1005;-49
2022/08/10 11:25:05;;;;;;;;;;;;;;;30.15;37.63;95180.94;5096345;28;1032;-49
2022/08/10 11:27:40;;;;;;;;;;;;;;;30.25;36.42;95188.31;5095912;28;3351;-49
2022/08/10 11:30:11;;;;;;;;;;;;;;;30.49;36.69;95178.25;5095971;28;1048;-49
2022/08/10 11:32:40;;;;;;;;;;;;;;;30.54;36.84;95181.00;5096385;28;1052;-49
2022/08/10 11:35:26;;;;;;;;;;;;;;;30.35;36.15;95186.38;5096127;28;958;-49
2022/08/10 11:38:13;;;;;;;;;;;;;;;30.24;36.45;95189.41;5095729;28;1099;-49
2022/08/10 11:40:45;;;;;;;;;;;;;;;30.09;37.48;95187.56;5096067;28;1048;-48
2022/08/10 11:43:14;;;;;;;;;;;;;;;29.90;38.00;95176.34;5074087;28;1150;-48
2022/08/10 11:45:44;;;;;;;;;;;;;;;29.70;39.52;95185.53;5075736;28;1005;-48
2022/08/10 11:48:20;;;;;;;;;;;;;;;29.50;40.39;95189.16;5075256;28;1257;-48
2022/08/10 11:50:48;;;;;;;;;;;;;;;29.54;39.99;95190.28;5075798;28;1039;-48
2022/08/10 11:53:14;;;;;;;;;;;;;;;29.57;39.31;95186.94;5075156;28;1028;-48
2022/08/10 11:55:43;;;;;;;;;;;;;;;29.58;38.82;95185.84;5075910;28;1909;-49
2022/08/10 12:01:01;;;;;;;;;;;;;;;29.67;38.39;95183.31;5075469;28;1016;-49
2022/08/10 12:03:30;;;;;;;;;;;;;;;29.87;38.80;95172.25;5075421;28;3288;-48
2022/08/10 12:05:57;;;;;;;;;;;;;;;30.11;38.35;95164.13;5077644;28;1029;-48
2022/08/10 12:08:25;;;;;;;;;;;;;;;30.36;37.66;95167.88;5095116;28;1080;-49
2022/08/10 12:10:53;;;;;;;;;;;;;;;30.48;35.08;95160.06;5095451;28;1255;-49
2022/08/10 12:13:30;;;;;;;;;;;;;;;30.60;34.63;95153.34;5095404;28;961;-48
2022/08/10 12:16:02;;;;;;;;;;;;;;;30.30;35.96;95152.44;5095245;28;1985;-48
2022/08/10 12:18:31;;;;;;;;;;;;;;;30.16;35.51;95150.34;5095020;28;913;-48
2022/08/10 12:20:59;;;;;;;;;;;;;;;30.34;35.87;95145.28;5095213;28;1045;-48
2022/08/10 12:23:34;;;;;;;;;;;;;;;30.29;35.41;95161.81;5095028;28;1047;-48
2022/08/10 12:26:00;;;;;;;;;;;;;;;29.98;37.87;95151.78;5095297;28;953;-48
2022/08/10 12:28:30;;;;;;;;;;;;;;;30.07;39.07;95152.03;5094833;28;1040;-48
2022/08/10 12:30:57;;;;;;;;;;;;;;;30.17;38.64;95146.44;5094973;28;1021;-48
2022/08/10 12:33:38;;;;;;;;;;;;;;;30.25;39.79;95155.22;5095138;28;1053;-49
2022/08/10 12:36:04;;;;;;;;;;;;;;;30.14;39.47;95160.78;5094896;28;1905;-48
2022/08/10 12:38:35;;;;;;;;;;;;;;;30.06;40.24;95155.88;5094815;28;1091;-48
2022/08/10 12:41:03;;;;;;;;;;;;;;;29.82;40.33;95160.41;5094759;28;1041;-48
2022/08/10 12:43:39;;;;;;;;;;;;;;;29.53;40.80;95175.66;5089992;28;1154;-49
2022/08/10 12:46:18;;;;;;;;;;;;;;;28.95;41.79;95166.94;5074564;28;977;-50
2022/08/10 12:48:53;;;;;;;;;;;;;;;28.48;42.02;95154.28;5074653;28;1076;-48
2022/08/10 12:51:24;;;;;;;;;;;;;;;28.27;42.13;95159.75;5074378;28;1041;-48
2022/08/10 12:54:16;;;;;;;;;;;;;;;28.24;42.07;95163.84;5074078;28;973;-48
2022/08/10 12:56:50;;;;;;;;;;;;;;;28.21;42.65;95158.06;5070729;28;1909;-48
2022/08/10 12:59:17;;;;;;;;;;;;;;;28.24;42.96;95157.53;5074198;28;966;-49
2022/08/10 13:01:45;;;;;;;;;;;;;;;28.31;43.16;95162.78;5074382;28;1046;-49
2022/08/10 13:04:15;;;;;;;;;;;;;;;28.40;42.77;95158.38;5080493;28;3193;-49
2022/08/10 13:06:45;;;;;;;;;;;;;;;28.44;43.73;95156.75;5094322;28;1045;-49
2022/08/10 13:09:19;;;;;;;;;;;;;;;28.34;43.53;95153.97;5094070;28;1104;-49
2022/08/10 13:15:21;;;;;;;;;;;;;;;28.38;44.08;95163.31;5039139;28;3358;-48
2022/08/10 13:17:48;;;;;;;;;;;;;;;28.34;45.88;95173.22;5073918;28;1072;-49
2022/08/10 13:20:17;;;;;;;;;;;;;;;28.33;44.88;95172.41;5073411;28;3321;-48
2022/08/10 13:22:45;;;;;;;;;;;;;;;28.13;44.31;95184.16;5073729;28;1005;-48
2022/08/10 13:25:12;;;;;;;;;;;;;;;28.07;44.34;95179.78;5073495;28;1099;-48